sensor_id;sensor_type;location;lat;lon;timestamp;temperature;humidity
22917;DHT22;11624;53.250;7.456;2022-08-25T00:01:22;27.54;40.55
22917;DHT22;11624;53.250;7.456;2022-08-25T00:03:56;27.51;40.55
22917;DHT22;11624;53.250;7.456;2022-08-25T00:06:25;27.46;40.55
22917;DHT22;11624;53.250;7.456;2022-08-25T00:08:53;27.42;41.00
22917;DHT22;11624;53.250;7.456;2022-08-25T00:11:27;27.41;40.81
22917;DHT22;11624;53.250;7.456;2022-08-25T00:13:59;27.40;40.71
22917;DHT22;11624;53.250;7.456;2022-08-25T00:16:28;27.35;40.91
22917;DHT22;11624;53.250;7.456;2022-08-25T00:19:00;27.32;40.71
22917;DHT22;11624;53.250;7.456;2022-08-25T00:21:29;27.27;40.85
22917;DHT22;11624;53.250;7.456;2022-08-25T00:23:59;27.25;41.04
22917;DHT22;11624;53.250;7.456;2022-08-25T00:26:28;27.21;41.28
22917;DHT22;11624;53.250;7.456;2022-08-25T00:28:56;27.43;40.50
22917;DHT22;11624;53.250;7.456;2022-08-25T00:31:27;27.50;40.26
22917;DHT22;11624;53.250;7.456;2022-08-25T00:34:08;27.51;40.10
22917;DHT22;11624;53.250;7.456;2022-08-25T00:36:37;27.49;40.23
22917;DHT22;11624;53.250;7.456;2022-08-25T00:39:07;27.45;40.34
22917;DHT22;11624;53.250;7.456;2022-08-25T00:41:37;27.41;40.37
22917;DHT22;11624;53.250;7.456;2022-08-25T00:44:07;27.40;40.34
22917;DHT22;11624;53.250;7.456;2022-08-25T00:46:38;27.35;40.48
22917;DHT22;11624;53.250;7.456;2022-08-25T00:49:12;27.32;40.46
22917;DHT22;11624;53.250;7.456;2022-08-25T00:51:56;27.28;40.46
22917;DHT22;11624;53.250;7.456;2022-08-25T00:54:27;27.26;40.58
22917;DHT22;11624;53.250;7.456;2022-08-25T00:56:57;27.22;40.90
22917;DHT22;11624;53.250;7.456;2022-08-25T00:59:26;27.20;40.81
22917;DHT22;11624;53.250;7.456;2022-08-25T01:01:55;27.14;40.74
22917;DHT22;11624;53.250;7.456;2022-08-25T01:04:26;27.12;40.79
22917;DHT22;11624;53.250;7.456;2022-08-25T01:06:55;27.10;40.91
22917;DHT22;11624;53.250;7.456;2022-08-25T01:09:25;27.07;41.00
22917;DHT22;11624;53.250;7.456;2022-08-25T01:11:53;27.04;40.96
22917;DHT22;11624;53.250;7.456;2022-08-25T01:14:23;27.01;40.95
22917;DHT22;11624;53.250;7.456;2022-08-25T01:16:52;26.95;41.26
22917;DHT22;11624;53.250;7.456;2022-08-25T01:19:21;26.99;41.19
22917;DHT22;11624;53.250;7.456;2022-08-25T01:21:52;26.96;41.21
22917;DHT22;11624;53.250;7.456;2022-08-25T01:24:25;26.92;41.33
22917;DHT22;11624;53.250;7.456;2022-08-25T01:26:55;26.87;41.36
22917;DHT22;11624;53.250;7.456;2022-08-25T01:29:23;26.84;41.53
22917;DHT22;11624;53.250;7.456;2022-08-25T01:31:58;26.82;41.65
22917;DHT22;11624;53.250;7.456;2022-08-25T01:34:46;26.78;41.65
22917;DHT22;11624;53.250;7.456;2022-08-25T01:37:19;26.75;41.78
22917;DHT22;11624;53.250;7.456;2022-08-25T01:39:47;26.73;41.90
22917;DHT22;11624;53.250;7.456;2022-08-25T01:43:05;26.66;41.79
22917;DHT22;11624;53.250;7.456;2022-08-25T01:45:36;26.65;42.10
22917;DHT22;11624;53.250;7.456;2022-08-25T01:48:17;26.60;42.10
22917;DHT22;11624;53.250;7.456;2022-08-25T01:51:00;26.57;42.24
22917;DHT22;11624;53.250;7.456;2022-08-25T01:53:31;26.55;42.29
22917;DHT22;11624;53.250;7.456;2022-08-25T01:56:09;26.51;42.24
22917;DHT22;11624;53.250;7.456;2022-08-25T01:59:15;26.48;42.27
22917;DHT22;11624;53.250;7.456;2022-08-25T02:01:51;26.42;42.76
22917;DHT22;11624;53.250;7.456;2022-08-25T02:04:26;26.40;42.65
22917;DHT22;11624;53.250;7.456;2022-08-25T02:06:55;26.38;42.72
22917;DHT22;11624;53.250;7.456;2022-08-25T02:09:24;26.37;42.88
22917;DHT22;11624;53.250;7.456;2022-08-25T02:11:52;26.36;42.87
22917;DHT22;11624;53.250;7.456;2022-08-25T02:14:40;26.28;42.83
22917;DHT22;11624;53.250;7.456;2022-08-25T02:17:43;26.25;43.12
22917;DHT22;11624;53.250;7.456;2022-08-25T02:20:11;26.18;43.42
22917;DHT22;11624;53.250;7.456;2022-08-25T02:22:40;26.16;43.61
22917;DHT22;11624;53.250;7.456;2022-08-25T02:25:18;26.13;43.60
22917;DHT22;11624;53.250;7.456;2022-08-25T02:27:47;26.09;43.53
22917;DHT22;11624;53.250;7.456;2022-08-25T02:30:15;26.09;43.61
22917;DHT22;11624;53.250;7.456;2022-08-25T02:32:43;26.05;43.88
22917;DHT22;11624;53.250;7.456;2022-08-25T02:35:12;26.04;43.93
22917;DHT22;11624;53.250;7.456;2022-08-25T02:37:40;26.02;43.96
22917;DHT22;11624;53.250;7.456;2022-08-25T02:40:09;25.98;44.15
22917;DHT22;11624;53.250;7.456;2022-08-25T02:42:39;25.94;44.26
22917;DHT22;11624;53.250;7.456;2022-08-25T02:45:08;25.93;44.35
22917;DHT22;11624;53.250;7.456;2022-08-25T02:47:36;25.92;44.25
22917;DHT22;11624;53.250;7.456;2022-08-25T02:50:05;25.89;44.35
22917;DHT22;11624;53.250;7.456;2022-08-25T02:52:34;25.86;44.58
22917;DHT22;11624;53.250;7.456;2022-08-25T02:55:04;25.83;44.50
22917;DHT22;11624;53.250;7.456;2022-08-25T02:57:33;25.81;44.73
22917;DHT22;11624;53.250;7.456;2022-08-25T03:00:04;25.79;44.74
22917;DHT22;11624;53.250;7.456;2022-08-25T03:02:32;25.78;44.73
22917;DHT22;11624;53.250;7.456;2022-08-25T03:05:00;25.75;44.80
22917;DHT22;11624;53.250;7.456;2022-08-25T03:07:28;25.73;44.98
22917;DHT22;11624;53.250;7.456;2022-08-25T03:10:05;25.75;44.96
22917;DHT22;11624;53.250;7.456;2022-08-25T03:12:33;25.76;45.09
22917;DHT22;11624;53.250;7.456;2022-08-25T03:15:03;25.75;44.94
22917;DHT22;11624;53.250;7.456;2022-08-25T03:17:38;25.72;44.98
22917;DHT22;11624;53.250;7.456;2022-08-25T03:20:12;25.73;44.96
22917;DHT22;11624;53.250;7.456;2022-08-25T03:22:40;25.73;44.99
22917;DHT22;11624;53.250;7.456;2022-08-25T03:25:09;25.73;45.10
22917;DHT22;11624;53.250;7.456;2022-08-25T03:27:54;25.71;45.09
22917;DHT22;11624;53.250;7.456;2022-08-25T03:30:24;25.72;45.17
22917;DHT22;11624;53.250;7.456;2022-08-25T03:32:53;25.69;45.16
22917;DHT22;11624;53.250;7.456;2022-08-25T03:35:21;25.71;45.26
22917;DHT22;11624;53.250;7.456;2022-08-25T03:37:49;25.71;45.39
22917;DHT22;11624;53.250;7.456;2022-08-25T03:40:17;25.66;45.28
22917;DHT22;11624;53.250;7.456;2022-08-25T03:42:46;25.67;45.28
22917;DHT22;11624;53.250;7.456;2022-08-25T03:45:17;25.65;45.44
22917;DHT22;11624;53.250;7.456;2022-08-25T03:47:49;25.65;45.49
22917;DHT22;11624;53.250;7.456;2022-08-25T03:50:18;25.61;45.47
22917;DHT22;11624;53.250;7.456;2022-08-25T03:52:50;25.61;45.41
22917;DHT22;11624;53.250;7.456;2022-08-25T03:55:21;25.59;45.48
22917;DHT22;11624;53.250;7.456;2022-08-25T03:57:49;25.58;45.50
22917;DHT22;11624;53.250;7.456;2022-08-25T04:00:18;25.57;45.67
22917;DHT22;11624;53.250;7.456;2022-08-25T04:02:48;25.53;45.62
22917;DHT22;11624;53.250;7.456;2022-08-25T04:05:16;25.51;45.86
22917;DHT22;11624;53.250;7.456;2022-08-25T04:07:46;25.52;45.76
22917;DHT22;11624;53.250;7.456;2022-08-25T04:10:14;25.49;45.86
22917;DHT22;11624;53.250;7.456;2022-08-25T04:12:42;25.47;45.88
22917;DHT22;11624;53.250;7.456;2022-08-25T04:15:11;25.44;45.92
22917;DHT22;11624;53.250;7.456;2022-08-25T04:17:39;25.40;46.10
22917;DHT22;11624;53.250;7.456;2022-08-25T04:20:10;25.39;46.18
22917;DHT22;11624;53.250;7.456;2022-08-25T04:22:40;25.38;46.25
22917;DHT22;11624;53.250;7.456;2022-08-25T04:25:11;25.35;46.38
22917;DHT22;11624;53.250;7.456;2022-08-25T04:27:40;25.36;46.40
22917;DHT22;11624;53.250;7.456;2022-08-25T04:30:09;25.32;46.60
22917;DHT22;11624;53.250;7.456;2022-08-25T04:32:37;25.31;46.64
22917;DHT22;11624;53.250;7.456;2022-08-25T04:35:06;25.31;46.63
22917;DHT22;11624;53.250;7.456;2022-08-25T04:37:36;25.31;46.55
22917;DHT22;11624;53.250;7.456;2022-08-25T04:40:05;25.32;46.64
22917;DHT22;11624;53.250;7.456;2022-08-25T04:42:34;25.32;46.67
22917;DHT22;11624;53.250;7.456;2022-08-25T04:45:03;25.31;46.72
22917;DHT22;11624;53.250;7.456;2022-08-25T04:47:35;25.29;46.79
22917;DHT22;11624;53.250;7.456;2022-08-25T04:50:05;25.29;46.89
22917;DHT22;11624;53.250;7.456;2022-08-25T04:52:33;25.30;46.99
22917;DHT22;11624;53.250;7.456;2022-08-25T04:55:03;25.28;47.18
22917;DHT22;11624;53.250;7.456;2022-08-25T04:57:33;25.28;47.06
22917;DHT22;11624;53.250;7.456;2022-08-25T05:00:03;25.29;47.12
22917;DHT22;11624;53.250;7.456;2022-08-25T05:02:31;25.27;47.14
22917;DHT22;11624;53.250;7.456;2022-08-25T05:04:59;25.27;47.38
22917;DHT22;11624;53.250;7.456;2022-08-25T05:07:29;25.28;47.38
22917;DHT22;11624;53.250;7.456;2022-08-25T05:09:57;25.24;47.49
22917;DHT22;11624;53.250;7.456;2022-08-25T05:12:27;25.27;47.45
22917;DHT22;11624;53.250;7.456;2022-08-25T05:14:58;25.25;47.53
22917;DHT22;11624;53.250;7.456;2022-08-25T05:17:47;25.25;47.76
22917;DHT22;11624;53.250;7.456;2022-08-25T05:20:21;25.28;47.70
22917;DHT22;11624;53.250;7.456;2022-08-25T05:22:49;25.29;47.80
22917;DHT22;11624;53.250;7.456;2022-08-25T05:25:18;25.32;47.80
22917;DHT22;11624;53.250;7.456;2022-08-25T05:27:47;25.33;47.77
22917;DHT22;11624;53.250;7.456;2022-08-25T05:30:16;25.31;48.05
22917;DHT22;11624;53.250;7.456;2022-08-25T05:32:44;25.31;48.10
22917;DHT22;11624;53.250;7.456;2022-08-25T05:35:12;25.34;48.17
22917;DHT22;11624;53.250;7.456;2022-08-25T05:37:41;25.36;48.15
22917;DHT22;11624;53.250;7.456;2022-08-25T05:40:09;25.38;48.33
22917;DHT22;11624;53.250;7.456;2022-08-25T05:42:38;25.43;48.23
22917;DHT22;11624;53.250;7.456;2022-08-25T05:45:08;25.44;48.34
22917;DHT22;11624;53.250;7.456;2022-08-25T05:47:46;25.42;48.31
22917;DHT22;11624;53.250;7.456;2022-08-25T05:50:15;25.43;48.43
22917;DHT22;11624;53.250;7.456;2022-08-25T05:52:43;25.47;48.57
22917;DHT22;11624;53.250;7.456;2022-08-25T05:55:12;25.49;48.55
22917;DHT22;11624;53.250;7.456;2022-08-25T05:57:41;25.53;48.66
22917;DHT22;11624;53.250;7.456;2022-08-25T06:00:12;25.60;48.58
22917;DHT22;11624;53.250;7.456;2022-08-25T06:02:40;25.64;48.61
22917;DHT22;11624;53.250;7.456;2022-08-25T06:05:10;25.67;48.68
22917;DHT22;11624;53.250;7.456;2022-08-25T06:07:39;25.75;48.65
22917;DHT22;11624;53.250;7.456;2022-08-25T06:10:08;25.81;48.65
22917;DHT22;11624;53.250;7.456;2022-08-25T06:12:39;25.81;48.90
22917;DHT22;11624;53.250;7.456;2022-08-25T06:15:11;25.90;48.92
22917;DHT22;11624;53.250;7.456;2022-08-25T06:17:40;25.93;48.85
22917;DHT22;11624;53.250;7.456;2022-08-25T06:20:11;25.99;48.99
22917;DHT22;11624;53.250;7.456;2022-08-25T06:22:40;26.07;48.79
22917;DHT22;11624;53.250;7.456;2022-08-25T06:25:10;26.07;49.13
22917;DHT22;11624;53.250;7.456;2022-08-25T06:27:39;26.13;49.08
22917;DHT22;11624;53.250;7.456;2022-08-25T06:30:09;26.22;49.28
22917;DHT22;11624;53.250;7.456;2022-08-25T06:32:44;26.33;48.85
22917;DHT22;11624;53.250;7.456;2022-08-25T06:35:16;26.38;48.85
22917;DHT22;11624;53.250;7.456;2022-08-25T06:37:45;26.45;48.95
22917;DHT22;11624;53.250;7.456;2022-08-25T06:40:14;26.58;48.81
22917;DHT22;11624;53.250;7.456;2022-08-25T06:42:47;26.67;48.82
22917;DHT22;11624;53.250;7.456;2022-08-25T06:45:16;26.75;48.63
22917;DHT22;11624;53.250;7.456;2022-08-25T06:47:46;26.84;48.64
22917;DHT22;11624;53.250;7.456;2022-08-25T06:52:42;27.05;48.47
22917;DHT22;11624;53.250;7.456;2022-08-25T06:55:10;27.15;48.03
22917;DHT22;11624;53.250;7.456;2022-08-25T06:57:38;27.22;47.91
22917;DHT22;11624;53.250;7.456;2022-08-25T07:00:07;27.28;47.89
22917;DHT22;11624;53.250;7.456;2022-08-25T07:02:38;27.34;48.09
22917;DHT22;11624;53.250;7.456;2022-08-25T07:05:08;27.43;47.80
22917;DHT22;11624;53.250;7.456;2022-08-25T07:07:52;27.51;47.55
22917;DHT22;11624;53.250;7.456;2022-08-25T07:10:20;27.58;47.99
22917;DHT22;11624;53.250;7.456;2022-08-25T07:12:48;27.79;47.86
22917;DHT22;11624;53.250;7.456;2022-08-25T07:15:17;27.96;47.50
22917;DHT22;11624;53.250;7.456;2022-08-25T07:17:47;28.14;46.96
22917;DHT22;11624;53.250;7.456;2022-08-25T07:20:18;28.32;47.02
22917;DHT22;11624;53.250;7.456;2022-08-25T07:22:47;28.57;46.55
22917;DHT22;11624;53.250;7.456;2022-08-25T07:25:15;28.93;45.73
22917;DHT22;11624;53.250;7.456;2022-08-25T07:27:43;29.48;44.71
22917;DHT22;11624;53.250;7.456;2022-08-25T07:30:12;29.97;43.12
22917;DHT22;11624;53.250;7.456;2022-08-25T07:32:40;30.34;42.70
22917;DHT22;11624;53.250;7.456;2022-08-25T07:35:09;30.81;41.50
22917;DHT22;11624;53.250;7.456;2022-08-25T07:37:47;31.01;40.42
22917;DHT22;11624;53.250;7.456;2022-08-25T07:40:20;31.00;40.96
22917;DHT22;11624;53.250;7.456;2022-08-25T07:42:50;31.26;40.57
22917;DHT22;11624;53.250;7.456;2022-08-25T07:45:20;31.57;39.48
22917;DHT22;11624;53.250;7.456;2022-08-25T07:47:55;31.75;38.95
22917;DHT22;11624;53.250;7.456;2022-08-25T07:50:24;31.88;39.08
22917;DHT22;11624;53.250;7.456;2022-08-25T07:52:54;32.03;39.08
22917;DHT22;11624;53.250;7.456;2022-08-25T07:55:24;32.25;39.07
22917;DHT22;11624;53.250;7.456;2022-08-25T07:57:53;32.49;38.29
22917;DHT22;11624;53.250;7.456;2022-08-25T08:00:23;32.77;37.42
22917;DHT22;11624;53.250;7.456;2022-08-25T08:02:54;32.85;35.86
22917;DHT22;11624;53.250;7.456;2022-08-25T08:05:22;32.62;37.38
22917;DHT22;11624;53.250;7.456;2022-08-25T08:07:50;32.61;36.40
22917;DHT22;11624;53.250;7.456;2022-08-25T08:10:21;32.61;37.64
22917;DHT22;11624;53.250;7.456;2022-08-25T08:13:11;32.97;36.26
22917;DHT22;11624;53.250;7.456;2022-08-25T08:15:44;33.15;35.93
22917;DHT22;11624;53.250;7.456;2022-08-25T08:18:13;33.06;36.29
22917;DHT22;11624;53.250;7.456;2022-08-25T08:20:43;32.98;37.02
22917;DHT22;11624;53.250;7.456;2022-08-25T08:23:11;33.12;37.21
22917;DHT22;11624;53.250;7.456;2022-08-25T08:25:40;33.20;36.34
22917;DHT22;11624;53.250;7.456;2022-08-25T08:28:08;33.20;37.18
22917;DHT22;11624;53.250;7.456;2022-08-25T08:30:37;33.30;35.96
22917;DHT22;11624;53.250;7.456;2022-08-25T08:33:05;33.33;35.53
22917;DHT22;11624;53.250;7.456;2022-08-25T08:35:38;33.22;35.63
22917;DHT22;11624;53.250;7.456;2022-08-25T08:38:07;33.17;37.05
22917;DHT22;11624;53.250;7.456;2022-08-25T08:40:59;33.29;36.40
22917;DHT22;11624;53.250;7.456;2022-08-25T08:43:53;33.43;37.24
22917;DHT22;11624;53.250;7.456;2022-08-25T08:46:24;33.53;36.15
22917;DHT22;11624;53.250;7.456;2022-08-25T08:48:59;33.59;36.80
22917;DHT22;11624;53.250;7.456;2022-08-25T08:51:32;33.73;36.33
22917;DHT22;11624;53.250;7.456;2022-08-25T08:54:08;33.90;36.97
22917;DHT22;11624;53.250;7.456;2022-08-25T08:56:46;34.10;35.58
22917;DHT22;11624;53.250;7.456;2022-08-25T08:59:18;34.27;34.41
22917;DHT22;11624;53.250;7.456;2022-08-25T09:01:49;34.41;34.67
22917;DHT22;11624;53.250;7.456;2022-08-25T09:04:25;34.68;34.16
22917;DHT22;11624;53.250;7.456;2022-08-25T09:06:54;34.83;34.41
22917;DHT22;11624;53.250;7.456;2022-08-25T09:09:28;34.96;33.49
22917;DHT22;11624;53.250;7.456;2022-08-25T09:12:08;34.86;33.73
22917;DHT22;11624;53.250;7.456;2022-08-25T09:14:51;34.95;34.05
22917;DHT22;11624;53.250;7.456;2022-08-25T09:17:36;35.25;33.54
22917;DHT22;11624;53.250;7.456;2022-08-25T09:20:43;35.58;33.53
22917;DHT22;11624;53.250;7.456;2022-08-25T09:23:26;35.79;32.28
22917;DHT22;11624;53.250;7.456;2022-08-25T09:26:02;35.86;31.41
22917;DHT22;11624;53.250;7.456;2022-08-25T09:28:39;35.87;31.48
22917;DHT22;11624;53.250;7.456;2022-08-25T09:31:15;35.97;32.93
22917;DHT22;11624;53.250;7.456;2022-08-25T09:33:56;36.26;31.90
22917;DHT22;11624;53.250;7.456;2022-08-25T09:36:25;36.43;31.13
22917;DHT22;11624;53.250;7.456;2022-08-25T09:38:54;36.49;30.40
22917;DHT22;11624;53.250;7.456;2022-08-25T09:41:40;36.52;30.78
22917;DHT22;11624;53.250;7.456;2022-08-25T09:44:18;36.72;30.19
22917;DHT22;11624;53.250;7.456;2022-08-25T09:46:57;36.80;29.54
22917;DHT22;11624;53.250;7.456;2022-08-25T09:49:35;36.71;31.17
22917;DHT22;11624;53.250;7.456;2022-08-25T09:52:22;37.03;29.84
22917;DHT22;11624;53.250;7.456;2022-08-25T09:54:52;36.98;29.93
22917;DHT22;11624;53.250;7.456;2022-08-25T09:57:29;37.26;29.72
22917;DHT22;11624;53.250;7.456;2022-08-25T10:00:14;37.75;29.13
22917;DHT22;11624;53.250;7.456;2022-08-25T10:02:44;38.09;27.76
22917;DHT22;11624;53.250;7.456;2022-08-25T10:05:20;38.36;28.83
22917;DHT22;11624;53.250;7.456;2022-08-25T10:07:52;38.37;26.51
22917;DHT22;11624;53.250;7.456;2022-08-25T10:10:27;38.19;27.23
22917;DHT22;11624;53.250;7.456;2022-08-25T10:12:59;38.35;26.29
22917;DHT22;11624;53.250;7.456;2022-08-25T10:15:35;38.22;27.08
22917;DHT22;11624;53.250;7.456;2022-08-25T10:18:19;38.19;27.25
22917;DHT22;11624;53.250;7.456;2022-08-25T10:21:04;38.41;27.13
22917;DHT22;11624;53.250;7.456;2022-08-25T10:23:36;38.48;27.23
22917;DHT22;11624;53.250;7.456;2022-08-25T10:26:10;38.35;25.50
22917;DHT22;11624;53.250;7.456;2022-08-25T10:28:50;38.01;26.42
22917;DHT22;11624;53.250;7.456;2022-08-25T10:31:26;38.09;26.30
22917;DHT22;11624;53.250;7.456;2022-08-25T10:34:11;37.87;26.57
22917;DHT22;11624;53.250;7.456;2022-08-25T10:36:48;37.97;27.03
22917;DHT22;11624;53.250;7.456;2022-08-25T10:39:31;38.21;27.10
22917;DHT22;11624;53.250;7.456;2022-08-25T10:42:29;38.32;24.98
22917;DHT22;11624;53.250;7.456;2022-08-25T10:45:15;38.14;24.73
22917;DHT22;11624;53.250;7.456;2022-08-25T10:48:30;38.01;25.79
22917;DHT22;11624;53.250;7.456;2022-08-25T10:51:14;38.17;25.37
22917;DHT22;11624;53.250;7.456;2022-08-25T10:53:58;38.33;26.32
22917;DHT22;11624;53.250;7.456;2022-08-25T10:56:34;38.55;24.49
22917;DHT22;11624;53.250;7.456;2022-08-25T10:59:38;38.70;24.65
22917;DHT22;11624;53.250;7.456;2022-08-25T11:02:29;39.00;24.99
22917;DHT22;11624;53.250;7.456;2022-08-25T11:05:11;39.49;24.46
22917;DHT22;11624;53.250;7.456;2022-08-25T11:07:54;39.82;23.11
22917;DHT22;11624;53.250;7.456;2022-08-25T11:10:37;39.78;23.87
22917;DHT22;11624;53.250;7.456;2022-08-25T11:13:10;40.02;22.40
22917;DHT22;11624;53.250;7.456;2022-08-25T11:15:51;40.00;22.19
22917;DHT22;11624;53.250;7.456;2022-08-25T11:18:45;40.10;21.63
22917;DHT22;11624;53.250;7.456;2022-08-25T11:21:22;39.76;22.56
22917;DHT22;11624;53.250;7.456;2022-08-25T11:23:56;39.77;23.33
22917;DHT22;11624;53.250;7.456;2022-08-25T11:26:28;40.07;22.42
22917;DHT22;11624;53.250;7.456;2022-08-25T11:29:07;40.02;22.34
22917;DHT22;11624;53.250;7.456;2022-08-25T11:31:41;39.99;22.23
22917;DHT22;11624;53.250;7.456;2022-08-25T11:34:19;39.52;22.29
22917;DHT22;11624;53.250;7.456;2022-08-25T11:36:52;39.49;22.61
22917;DHT22;11624;53.250;7.456;2022-08-25T11:39:32;39.56;22.34
22917;DHT22;11624;53.250;7.456;2022-08-25T11:42:14;39.54;22.82
22917;DHT22;11624;53.250;7.456;2022-08-25T11:44:51;39.68;22.80
22917;DHT22;11624;53.250;7.456;2022-08-25T11:47:37;40.04;19.55
22917;DHT22;11624;53.250;7.456;2022-08-25T11:50:23;40.02;21.55
22917;DHT22;11624;53.250;7.456;2022-08-25T11:52:59;40.42;20.47
22917;DHT22;11624;53.250;7.456;2022-08-25T11:55:47;40.63;19.51
22917;DHT22;11624;53.250;7.456;2022-08-25T11:58:27;40.51;19.77
22917;DHT22;11624;53.250;7.456;2022-08-25T12:00:58;40.92;20.02
22917;DHT22;11624;53.250;7.456;2022-08-25T12:03:53;41.34;17.53
22917;DHT22;11624;53.250;7.456;2022-08-25T12:10:23;41.85;19.04
22917;DHT22;11624;53.250;7.456;2022-08-25T12:13:01;42.25;17.93
22917;DHT22;11624;53.250;7.456;2022-08-25T12:15:55;42.06;17.86
22917;DHT22;11624;53.250;7.456;2022-08-25T12:18:41;41.61;19.30
22917;DHT22;11624;53.250;7.456;2022-08-25T12:21:28;41.22;19.44
22917;DHT22;11624;53.250;7.456;2022-08-25T12:24:13;41.50;20.28
22917;DHT22;11624;53.250;7.456;2022-08-25T12:26:52;41.79;17.38
22917;DHT22;11624;53.250;7.456;2022-08-25T12:29:38;41.76;19.54
22917;DHT22;11624;53.250;7.456;2022-08-25T12:35:24;41.76;18.35
22917;DHT22;11624;53.250;7.456;2022-08-25T12:37:58;41.85;18.48
22917;DHT22;11624;53.250;7.456;2022-08-25T12:40:32;41.87;18.66
22917;DHT22;11624;53.250;7.456;2022-08-25T12:43:06;41.93;18.45
22917;DHT22;11624;53.250;7.456;2022-08-25T12:45:44;41.86;17.22
22917;DHT22;11624;53.250;7.456;2022-08-25T12:51:25;40.90;20.11
22917;DHT22;11624;53.250;7.456;2022-08-25T12:53:59;41.29;19.59
22917;DHT22;11624;53.250;7.456;2022-08-25T12:56:34;41.19;18.17
22917;DHT22;11624;53.250;7.456;2022-08-25T12:59:14;41.07;19.26
22917;DHT22;11624;53.250;7.456;2022-08-25T13:02:05;41.01;18.07
22917;DHT22;11624;53.250;7.456;2022-08-25T13:05:12;41.12;18.19
22917;DHT22;11624;53.250;7.456;2022-08-25T13:07:57;40.82;18.96
22917;DHT22;11624;53.250;7.456;2022-08-25T13:10:43;40.72;20.79
22917;DHT22;11624;53.250;7.456;2022-08-25T13:13:18;40.55;19.17
22917;DHT22;11624;53.250;7.456;2022-08-25T13:15:59;40.38;19.61
22917;DHT22;11624;53.250;7.456;2022-08-25T13:18:30;40.22;20.54
22917;DHT22;11624;53.250;7.456;2022-08-25T13:21:05;40.17;20.35
22917;DHT22;11624;53.250;7.456;2022-08-25T13:23:38;39.96;20.82
22917;DHT22;11624;53.250;7.456;2022-08-25T13:26:09;39.95;21.60
22917;DHT22;11624;53.250;7.456;2022-08-25T13:28:42;39.88;21.68
22917;DHT22;11624;53.250;7.456;2022-08-25T13:31:19;40.01;20.83
22917;DHT22;11624;53.250;7.456;2022-08-25T13:33:49;40.15;20.94
22917;DHT22;11624;53.250;7.456;2022-08-25T13:36:22;40.41;20.31
22917;DHT22;11624;53.250;7.456;2022-08-25T13:39:21;40.67;19.33
22917;DHT22;11624;53.250;7.456;2022-08-25T13:42:13;40.21;19.94
22917;DHT22;11624;53.250;7.456;2022-08-25T13:44:42;39.76;19.42
22917;DHT22;11624;53.250;7.456;2022-08-25T13:47:33;39.47;19.96
22917;DHT22;11624;53.250;7.456;2022-08-25T13:50:21;39.32;21.73
22917;DHT22;11624;53.250;7.456;2022-08-25T13:52:55;39.47;20.93
22917;DHT22;11624;53.250;7.456;2022-08-25T13:55:27;39.58;21.85
22917;DHT22;11624;53.250;7.456;2022-08-25T13:58:05;39.69;21.50
22917;DHT22;11624;53.250;7.456;2022-08-25T14:00:43;39.98;20.97
22917;DHT22;11624;53.250;7.456;2022-08-25T14:06:17;39.63;21.28
22917;DHT22;11624;53.250;7.456;2022-08-25T14:09:05;39.59;21.45
22917;DHT22;11624;53.250;7.456;2022-08-25T14:11:43;39.73;21.05
22917;DHT22;11624;53.250;7.456;2022-08-25T14:14:29;39.62;21.66
22917;DHT22;11624;53.250;7.456;2022-08-25T14:17:03;39.61;20.86
22917;DHT22;11624;53.250;7.456;2022-08-25T14:19:52;39.62;21.84
22917;DHT22;11624;53.250;7.456;2022-08-25T14:22:22;39.71;21.16
22917;DHT22;11624;53.250;7.456;2022-08-25T14:24:52;39.80;22.37
22917;DHT22;11624;53.250;7.456;2022-08-25T14:27:21;39.70;21.36
22917;DHT22;11624;53.250;7.456;2022-08-25T14:29:49;39.69;21.30
22917;DHT22;11624;53.250;7.456;2022-08-25T14:32:18;39.43;20.97
22917;DHT22;11624;53.250;7.456;2022-08-25T14:34:47;39.14;21.56
22917;DHT22;11624;53.250;7.456;2022-08-25T14:37:18;38.99;21.50
22917;DHT22;11624;53.250;7.456;2022-08-25T14:39:52;38.89;22.71
22917;DHT22;11624;53.250;7.456;2022-08-25T14:42:21;39.04;22.43
22917;DHT22;11624;53.250;7.456;2022-08-25T14:44:52;39.10;22.22
22917;DHT22;11624;53.250;7.456;2022-08-25T14:47:22;39.03;23.00
22917;DHT22;11624;53.250;7.456;2022-08-25T14:49:51;39.14;23.06
22917;DHT22;11624;53.250;7.456;2022-08-25T14:52:23;39.23;22.23
22917;DHT22;11624;53.250;7.456;2022-08-25T14:54:54;38.99;22.69
22917;DHT22;11624;53.250;7.456;2022-08-25T14:57:23;38.86;23.69
22917;DHT22;11624;53.250;7.456;2022-08-25T14:59:51;38.88;22.98
22917;DHT22;11624;53.250;7.456;2022-08-25T15:02:21;38.78;22.30
22917;DHT22;11624;53.250;7.456;2022-08-25T15:04:58;38.59;23.34
22917;DHT22;11624;53.250;7.456;2022-08-25T15:07:28;38.66;23.32
22917;DHT22;11624;53.250;7.456;2022-08-25T15:10:16;38.61;22.79
22917;DHT22;11624;53.250;7.456;2022-08-25T15:12:47;38.52;23.22
22917;DHT22;11624;53.250;7.456;2022-08-25T15:15:20;38.62;23.53
22917;DHT22;11624;53.250;7.456;2022-08-25T15:17:52;38.70;23.66
22917;DHT22;11624;53.250;7.456;2022-08-25T15:20:26;38.77;22.85
22917;DHT22;11624;53.250;7.456;2022-08-25T15:22:56;38.63;22.92
22917;DHT22;11624;53.250;7.456;2022-08-25T15:25:26;38.58;23.51
22917;DHT22;11624;53.250;7.456;2022-08-25T15:27:55;38.52;24.26
22917;DHT22;11624;53.250;7.456;2022-08-25T15:30:24;38.71;24.36
22917;DHT22;11624;53.250;7.456;2022-08-25T15:32:57;38.91;24.40
22917;DHT22;11624;53.250;7.456;2022-08-25T15:35:26;38.81;24.17
22917;DHT22;11624;53.250;7.456;2022-08-25T15:37:55;38.81;24.04
22917;DHT22;11624;53.250;7.456;2022-08-25T15:40:23;38.66;23.19
22917;DHT22;11624;53.250;7.456;2022-08-25T15:42:53;38.34;23.84
22917;DHT22;11624;53.250;7.456;2022-08-25T15:45:22;38.04;24.34
22917;DHT22;11624;53.250;7.456;2022-08-25T15:47:50;37.93;25.52
22917;DHT22;11624;53.250;7.456;2022-08-25T15:50:20;38.01;25.22
22917;DHT22;11624;53.250;7.456;2022-08-25T15:52:52;37.96;24.57
22917;DHT22;11624;53.250;7.456;2022-08-25T15:55:20;37.84;24.95
22917;DHT22;11624;53.250;7.456;2022-08-25T15:57:49;37.90;26.48
22917;DHT22;11624;53.250;7.456;2022-08-25T16:00:19;38.06;25.39
22917;DHT22;11624;53.250;7.456;2022-08-25T16:02:48;38.07;24.25
22917;DHT22;11624;53.250;7.456;2022-08-25T16:05:17;37.84;25.23
22917;DHT22;11624;53.250;7.456;2022-08-25T16:07:51;37.79;25.48
22917;DHT22;11624;53.250;7.456;2022-08-25T16:10:20;37.81;25.00
22917;DHT22;11624;53.250;7.456;2022-08-25T16:12:49;37.91;25.41
22917;DHT22;11624;53.250;7.456;2022-08-25T16:15:19;37.93;25.14
22917;DHT22;11624;53.250;7.456;2022-08-25T16:17:54;37.89;25.12
22917;DHT22;11624;53.250;7.456;2022-08-25T16:20:22;37.85;25.11
22917;DHT22;11624;53.250;7.456;2022-08-25T16:22:52;37.89;25.14
22917;DHT22;11624;53.250;7.456;2022-08-25T16:25:21;37.87;24.87
22917;DHT22;11624;53.250;7.456;2022-08-25T16:27:49;37.82;25.27